createdAt,value
2016-12-26T00:00:58.075Z,0
2016-12-26T00:02:07.059Z,0
2016-12-26T00:03:15.644Z,0
2016-12-26T00:04:24.556Z,0
2016-12-26T00:05:33.783Z,0
2016-12-26T00:06:42.382Z,0
2016-12-26T00:07:51.075Z,0
2016-12-26T00:08:59.994Z,0
2016-12-26T00:10:09.221Z,0
2016-12-26T00:11:17.801Z,0
2016-12-26T00:12:26.694Z,0
2016-12-26T00:13:35.705Z,0
2016-12-26T00:14:44.616Z,0
2016-12-26T00:15:53.199Z,0
2016-12-26T00:17:02.116Z,0
2016-12-26T00:18:10.697Z,0
2016-12-26T00:19:19.910Z,0
2016-12-26T00:20:29.470Z,0
2016-12-26T00:21:38.065Z,0
2016-12-26T00:22:47.311Z,0
2016-12-26T00:23:56.527Z,0
2016-12-26T00:25:05.599Z,0
2016-12-26T00:26:14.184Z,0
2016-12-26T00:27:22.783Z,0
2016-12-26T00:28:31.706Z,0
2016-12-26T00:29:40.295Z,0
2016-12-26T00:30:48.948Z,0
2016-12-26T00:31:57.854Z,0
2016-12-26T00:33:06.755Z,0
2016-12-26T00:34:15.998Z,0
2016-12-26T00:35:24.900Z,0
2016-12-26T00:36:33.865Z,0
2016-12-26T00:37:42.771Z,0
2016-12-26T00:38:51.661Z,0
2016-12-26T00:40:00.588Z,0
2016-12-26T00:41:09.494Z,0
2016-12-26T00:42:19.063Z,0
2016-12-26T00:43:28.277Z,0
2016-12-26T00:44:36.882Z,0
2016-12-26T00:45:45.782Z,0
2016-12-26T00:46:54.679Z,0
2016-12-26T00:48:03.611Z,0
2016-12-26T00:49:12.851Z,0
2016-12-26T00:50:22.086Z,0
2016-12-26T00:51:30.675Z,0
2016-12-26T00:52:39.253Z,0
2016-12-26T00:53:48.192Z,0
2016-12-26T00:54:56.778Z,0
2016-12-26T00:56:05.722Z,0
2016-12-26T00:57:14.299Z,0
2016-12-26T00:58:23.198Z,0
2016-12-26T00:59:32.588Z,0
2016-12-26T01:00:41.188Z,0
2016-12-26T01:01:49.816Z,0
2016-12-26T01:02:58.732Z,0
2016-12-26T01:04:07.315Z,0
2016-12-26T01:05:16.626Z,0
2016-12-26T01:06:25.211Z,0
2016-12-26T01:07:33.808Z,0
2016-12-26T01:08:42.708Z,0
2016-12-26T01:09:51.300Z,0
2016-12-26T01:11:00.508Z,0
2016-12-26T01:12:09.740Z,0
2016-12-26T01:13:18.331Z,0
2016-12-26T01:14:26.925Z,0
2016-12-26T01:15:35.831Z,0
2016-12-26T01:16:45.510Z,0
2016-12-26T01:17:54.742Z,0
2016-12-26T01:19:03.326Z,0
2016-12-26T01:20:12.236Z,0
2016-12-26T01:21:21.467Z,0
2016-12-26T01:22:30.742Z,0
2016-12-26T01:23:39.321Z,0
2016-12-26T01:24:48.219Z,0
2016-12-26T01:25:57.448Z,0
2016-12-26T01:27:06.367Z,0
2016-12-26T01:28:15.657Z,0
2016-12-26T01:29:24.570Z,0
2016-12-26T01:30:33.476Z,0
2016-12-26T01:31:42.726Z,0
2016-12-26T01:32:51.311Z,0
2016-12-26T01:34:00.574Z,0
2016-12-26T01:35:09.170Z,0
2016-12-26T01:36:17.758Z,0
2016-12-26T01:37:26.339Z,0
2016-12-26T01:38:34.925Z,0
2016-12-26T01:39:44.494Z,0
2016-12-26T01:40:53.388Z,0
2016-12-26T01:42:02.304Z,0
2016-12-26T01:43:11.547Z,0
2016-12-26T01:44:20.145Z,0
2016-12-26T01:45:29.114Z,0
2016-12-26T01:46:38.021Z,0
2016-12-26T01:47:46.612Z,0
2016-12-26T01:48:55.527Z,0
2016-12-26T01:50:04.431Z,0
2016-12-26T01:51:13.409Z,0
2016-12-26T01:52:22.319Z,0
2016-12-26T01:53:31.219Z,0
2016-12-26T01:54:39.802Z,0
2016-12-26T01:55:48.419Z,0
2016-12-26T01:56:57.951Z,0
2016-12-26T01:58:06.855Z,0
2016-12-26T01:59:15.769Z,0
2016-12-26T02:00:24.674Z,0
2016-12-26T02:01:33.267Z,0
2016-12-26T02:02:42.635Z,0
2016-12-26T02:03:51.229Z,0
2016-12-26T02:05:00.445Z,0
2016-12-26T02:06:09.360Z,0
2016-12-26T02:07:17.960Z,0
2016-12-26T02:08:27.274Z,0
2016-12-26T02:09:35.861Z,0
2016-12-26T02:10:44.447Z,0
2016-12-26T02:11:53.019Z,0
2016-12-26T02:13:01.594Z,0
2016-12-26T02:14:11.160Z,0
2016-12-26T02:15:20.081Z,0
2016-12-26T02:16:28.662Z,0
2016-12-26T02:17:37.585Z,0
2016-12-26T02:18:46.504Z,0
2016-12-26T02:19:55.447Z,0
2016-12-26T02:21:04.025Z,0
2016-12-26T02:22:12.600Z,0
2016-12-26T02:23:21.494Z,0
2016-12-26T02:24:30.382Z,0
2016-12-26T02:25:39.570Z,0
2016-12-26T02:26:48.462Z,0
2016-12-26T02:27:57.674Z,0
2016-12-26T02:29:06.249Z,0
2016-12-26T02:30:15.135Z,0
2016-12-26T02:31:24.439Z,0
2016-12-26T02:32:33.652Z,0
2016-12-26T02:33:42.226Z,0
2016-12-26T02:34:51.118Z,0
2016-12-26T02:36:00.341Z,0
2016-12-26T02:37:09.681Z,0
2016-12-26T02:38:18.889Z,0
2016-12-26T02:39:28.113Z,0
2016-12-26T02:40:37.323Z,0
2016-12-26T02:41:45.929Z,0
2016-12-26T02:42:55.272Z,0
2016-12-26T02:44:03.847Z,0
2016-12-26T02:45:12.419Z,0
2016-12-26T02:46:20.988Z,0
2016-12-26T02:47:29.560Z,0
2016-12-26T02:48:38.430Z,0
2016-12-26T02:49:47.006Z,0
2016-12-26T02:50:55.903Z,0
2016-12-26T02:52:04.478Z,0
2016-12-26T02:53:13.056Z,0
2016-12-26T02:54:22.314Z,0
2016-12-26T02:55:31.207Z,0
2016-12-26T02:56:40.098Z,0
2016-12-26T02:57:49.309Z,0
2016-12-26T02:58:57.882Z,0
2016-12-26T03:00:07.179Z,0
2016-12-26T03:01:16.394Z,0
2016-12-26T03:02:25.289Z,0
2016-12-26T03:03:34.179Z,0
2016-12-26T03:04:43.079Z,0
2016-12-26T03:05:52.002Z,0
2016-12-26T03:07:00.569Z,0
2016-12-26T03:08:09.136Z,0
2016-12-26T03:09:17.711Z,0
2016-12-26T03:10:26.284Z,0
2016-12-26T03:11:35.526Z,0
2016-12-26T03:12:45.054Z,0
2016-12-26T03:13:53.948Z,0
2016-12-26T03:15:02.526Z,0
2016-12-26T03:16:11.413Z,0
2016-12-26T03:17:20.706Z,0
2016-12-26T03:18:29.603Z,0
2016-12-26T03:19:38.174Z,0
2016-12-26T03:20:47.402Z,0
2016-12-26T03:21:55.973Z,0
2016-12-26T03:23:04.950Z,0
2016-12-26T03:24:13.843Z,0
2016-12-26T03:25:23.052Z,0
2016-12-26T03:26:31.941Z,0
2016-12-26T03:27:40.514Z,0
2016-12-26T03:28:49.488Z,0
2016-12-26T03:29:58.064Z,0
2016-12-26T03:31:06.953Z,0
2016-12-26T03:32:15.871Z,0
2016-12-26T03:33:24.444Z,0
2016-12-26T03:34:33.716Z,0
2016-12-26T03:35:42.284Z,0
2016-12-26T03:36:51.185Z,0
2016-12-26T03:37:59.758Z,0
2016-12-26T03:39:08.649Z,0
2016-12-26T03:40:18.210Z,0
2016-12-26T03:41:27.103Z,0
2016-12-26T03:42:36.641Z,0
2016-12-26T03:43:45.528Z,0
2016-12-26T03:44:54.098Z,0
2016-12-26T03:46:03.024Z,0
2016-12-26T03:47:11.914Z,0
2016-12-26T03:48:20.485Z,0
2016-12-26T03:49:29.058Z,0
2016-12-26T03:50:37.947Z,0
2016-12-26T03:51:47.293Z,0
2016-12-26T03:52:55.871Z,0
2016-12-26T03:54:04.444Z,0
2016-12-26T03:55:13.044Z,0
2016-12-26T03:56:22.253Z,0
2016-12-26T03:57:31.492Z,0
2016-12-26T03:58:40.072Z,0
2016-12-26T03:59:48.967Z,0
2016-12-26T04:00:57.540Z,0
2016-12-26T04:02:06.437Z,0
2016-12-26T04:03:15.749Z,0
2016-12-26T04:04:24.320Z,0
2016-12-26T04:05:33.208Z,0
2016-12-26T04:06:41.786Z,0
2016-12-26T04:07:50.359Z,0
2016-12-26T04:08:59.870Z,0
2016-12-26T04:10:08.445Z,0
2016-12-26T04:11:17.337Z,0
2016-12-26T04:12:26.228Z,0
2016-12-26T04:13:34.802Z,0
2016-12-26T04:14:44.044Z,0
2016-12-26T04:15:53.571Z,0
2016-12-26T04:17:02.468Z,0
2016-12-26T04:18:11.041Z,0
2016-12-26T04:19:19.612Z,0
2016-12-26T04:20:28.540Z,0
2016-12-26T04:21:37.425Z,0
2016-12-26T04:22:46.314Z,0
2016-12-26T04:23:55.240Z,0
2016-12-26T04:25:03.808Z,0
2016-12-26T04:26:12.751Z,0
2016-12-26T04:27:21.347Z,0
2016-12-26T04:28:29.919Z,0
2016-12-26T04:29:38.491Z,0
2016-12-26T04:30:47.379Z,0
2016-12-26T04:31:56.308Z,0
2016-12-26T04:33:04.902Z,0
2016-12-26T04:34:14.110Z,0
2016-12-26T04:35:22.686Z,0
2016-12-26T04:36:31.582Z,0
2016-12-26T04:37:40.515Z,0
2016-12-26T04:38:49.089Z,0
2016-12-26T04:39:57.660Z,0
2016-12-26T04:41:06.230Z,0
2016-12-26T04:42:15.120Z,0
2016-12-26T04:43:24.046Z,0
2016-12-26T04:44:32.617Z,0
2016-12-26T04:45:41.509Z,0
2016-12-26T04:46:50.078Z,0
2016-12-26T04:47:58.967Z,0
2016-12-26T04:49:07.894Z,0
2016-12-26T04:50:16.464Z,0
2016-12-26T04:51:25.038Z,0
2016-12-26T04:52:33.934Z,0
2016-12-26T04:53:42.514Z,0
2016-12-26T04:54:51.752Z,0
2016-12-26T04:56:00.962Z,0
2016-12-26T04:57:09.851Z,0
2016-12-26T04:58:18.426Z,0
2016-12-26T04:59:27.314Z,0
2016-12-26T05:00:35.939Z,0
2016-12-26T05:01:44.508Z,0
2016-12-26T05:02:53.080Z,0
2016-12-26T05:04:02.289Z,0
2016-12-26T05:05:10.865Z,0
2016-12-26T05:06:19.742Z,0
2016-12-26T05:07:28.637Z,0
2016-12-26T05:08:37.847Z,0
2016-12-26T05:09:46.736Z,0
2016-12-26T05:10:55.317Z,0
2016-12-26T05:12:04.265Z,0
2016-12-26T05:13:12.839Z,0
2016-12-26T05:14:21.413Z,0
2016-12-26T05:15:29.999Z,0
2016-12-26T05:16:38.891Z,0
2016-12-26T05:17:47.843Z,0
2016-12-26T05:18:56.736Z,0
2016-12-26T05:20:05.309Z,0
2016-12-26T05:21:14.199Z,0
2016-12-26T05:22:23.407Z,0
2016-12-26T05:23:32.328Z,0
2016-12-26T05:24:40.900Z,0
2016-12-26T05:25:49.471Z,0
2016-12-26T05:26:58.392Z,0
2016-12-26T05:28:07.283Z,0
2016-12-26T05:29:15.907Z,0
2016-12-26T05:30:24.796Z,0
2016-12-26T05:31:33.366Z,0
2016-12-26T05:32:42.254Z,0
2016-12-26T05:33:50.836Z,0
2016-12-26T05:35:00.082Z,0
2016-12-26T05:36:08.658Z,0
2016-12-26T05:37:17.867Z,0
2016-12-26T05:38:26.438Z,0
2016-12-26T05:39:35.010Z,0
2016-12-26T05:40:43.933Z,0
2016-12-26T05:41:52.503Z,0
2016-12-26T05:43:01.394Z,0
2016-12-26T05:44:10.289Z,0
2016-12-26T05:45:19.179Z,0
2016-12-26T05:46:27.904Z,0
2016-12-26T05:47:37.123Z,0
2016-12-26T05:48:45.698Z,0
2016-12-26T05:49:54.906Z,0
2016-12-26T05:51:03.800Z,0
2016-12-26T05:52:12.532Z,0
2016-12-26T05:53:21.420Z,0
2016-12-26T05:54:30.311Z,0
2016-12-26T05:55:39.198Z,0
2016-12-26T05:56:47.780Z,0
2016-12-26T05:57:57.339Z,0
2016-12-26T05:59:06.549Z,0
2016-12-26T06:00:15.756Z,0
2016-12-26T06:01:24.680Z,0
2016-12-26T06:02:33.572Z,0
2016-12-26T06:03:42.811Z,0
2016-12-26T06:04:51.702Z,0
2016-12-26T06:06:00.908Z,0
2016-12-26T06:07:09.486Z,0
2016-12-26T06:08:18.380Z,0
2016-12-26T06:09:27.622Z,0
2016-12-26T06:10:36.195Z,0
2016-12-26T06:11:45.082Z,0
2016-12-26T06:12:54.612Z,0
2016-12-26T06:14:03.501Z,0
2016-12-26T06:15:12.798Z,0
2016-12-26T06:16:21.684Z,0
2016-12-26T06:17:30.255Z,0
2016-12-26T06:18:39.146Z,0
2016-12-26T06:19:48.032Z,0
2016-12-26T06:20:56.956Z,0
2016-12-26T06:22:05.559Z,0
2016-12-26T06:23:14.130Z,0
2016-12-26T06:24:23.343Z,0
2016-12-26T06:25:32.555Z,0
2016-12-26T06:26:41.477Z,0
2016-12-26T06:27:50.048Z,0
2016-12-26T06:28:58.937Z,0
2016-12-26T06:30:07.824Z,0
2016-12-26T06:31:16.400Z,0
2016-12-26T06:32:25.740Z,0
2016-12-26T06:33:34.335Z,0
2016-12-26T06:34:43.249Z,0
2016-12-26T06:35:51.817Z,0
2016-12-26T06:37:01.027Z,0
2016-12-26T06:38:09.650Z,0
2016-12-26T06:39:18.218Z,0
2016-12-26T06:40:27.109Z,0
2016-12-26T06:41:35.681Z,0
2016-12-26T06:42:44.572Z,0
2016-12-26T06:43:53.814Z,0
2016-12-26T06:45:02.389Z,0
2016-12-26T06:46:10.967Z,0
2016-12-26T06:47:19.854Z,0
2016-12-26T06:48:28.431Z,0
2016-12-26T06:49:38.094Z,0
2016-12-26T06:50:46.987Z,0
2016-12-26T06:51:56.201Z,0
2016-12-26T06:53:05.448Z,0
2016-12-26T06:54:14.027Z,0
2016-12-26T06:55:22.944Z,0
2016-12-26T06:56:31.838Z,0
2016-12-26T06:57:40.413Z,0
2016-12-26T06:58:49.314Z,0
2016-12-26T06:59:58.213Z,0
2016-12-26T07:01:07.151Z,0
2016-12-26T07:02:16.364Z,0
2016-12-26T07:03:24.937Z,0
2016-12-26T07:04:33.833Z,0
2016-12-26T07:05:42.402Z,0
2016-12-26T07:06:51.671Z,0
2016-12-26T07:08:00.879Z,4
2016-12-26T07:09:09.451Z,0
2016-12-26T07:10:18.026Z,0
2016-12-26T07:11:26.918Z,4
2016-12-26T07:12:36.157Z,4
2016-12-26T07:13:44.732Z,4
2016-12-26T07:14:53.624Z,4
2016-12-26T07:16:02.832Z,8
2016-12-26T07:17:11.722Z,8
2016-12-26T07:18:20.716Z,8
2016-12-26T07:19:29.283Z,8
2016-12-26T07:20:38.168Z,4
2016-12-26T07:21:46.740Z,8
2016-12-26T07:22:55.953Z,16
2016-12-26T07:24:04.928Z,16
2016-12-26T07:25:13.501Z,12
2016-12-26T07:26:22.706Z,20
2016-12-26T07:27:31.278Z,24
2016-12-26T07:28:40.481Z,32
2016-12-26T07:29:49.401Z,36
2016-12-26T07:30:58.608Z,48
2016-12-26T07:32:07.494Z,52
2016-12-26T07:33:16.380Z,56
2016-12-26T07:34:25.593Z,60
2016-12-26T07:35:34.829Z,64
2016-12-26T07:36:43.396Z,80
2016-12-26T07:37:52.604Z,84
2016-12-26T07:39:01.174Z,96
2016-12-26T07:40:10.060Z,112
2016-12-26T07:41:19.616Z,124
2016-12-26T07:42:28.824Z,116
2016-12-26T07:43:37.713Z,140
2016-12-26T07:44:47.242Z,144
2016-12-26T07:45:56.446Z,160
2016-12-26T07:47:06.008Z,140
2016-12-26T07:48:15.534Z,132
2016-12-26T07:49:24.422Z,140
2016-12-26T07:50:32.987Z,168
2016-12-26T07:51:41.874Z,176
2016-12-26T07:52:50.493Z,208
2016-12-26T07:53:59.060Z,224
2016-12-26T07:55:07.630Z,260
2016-12-26T07:56:16.207Z,268
2016-12-26T07:57:25.099Z,292
2016-12-26T07:58:34.336Z,304
2016-12-26T07:59:43.542Z,336
2016-12-26T08:00:52.109Z,384
2016-12-26T08:02:00.999Z,432
2016-12-26T08:03:10.543Z,452
2016-12-26T08:04:19.483Z,468
2016-12-26T08:05:28.375Z,476
2016-12-26T08:06:36.944Z,508
2016-12-26T08:07:45.508Z,576
2016-12-26T08:08:54.715Z,692
2016-12-26T08:10:03.957Z,800
2016-12-26T08:11:13.188Z,892
2016-12-26T08:12:21.755Z,940
2016-12-26T08:13:30.329Z,980
2016-12-26T08:14:39.544Z,948
2016-12-26T08:15:49.155Z,968
2016-12-26T08:16:58.357Z,1004
2016-12-26T08:18:07.243Z,936
2016-12-26T08:19:15.815Z,852
2016-12-26T08:20:24.715Z,948
2016-12-26T08:21:34.273Z,992
2016-12-26T08:22:43.187Z,1112
2016-12-26T08:23:52.075Z,1276
2016-12-26T08:25:01.283Z,1512
2016-12-26T08:26:10.487Z,1636
2016-12-26T08:27:19.723Z,1796
2016-12-26T08:28:28.293Z,1816
2016-12-26T08:29:36.866Z,1872
2016-12-26T08:30:45.761Z,1844
2016-12-26T08:31:54.329Z,1872
2016-12-26T08:33:03.353Z,1772
2016-12-26T08:34:12.561Z,1872
2016-12-26T08:35:21.448Z,1888
2016-12-26T08:36:30.338Z,1908
2016-12-26T08:37:39.226Z,1892
2016-12-26T08:38:48.142Z,1920
2016-12-26T08:39:56.711Z,1884
2016-12-26T08:41:05.290Z,1884
2016-12-26T08:42:14.179Z,1960
2016-12-26T08:43:23.090Z,2004
2016-12-26T08:44:32.021Z,2144
2016-12-26T08:45:40.928Z,2120
2016-12-26T08:46:49.495Z,2156
2016-12-26T08:47:58.066Z,2224
2016-12-26T08:49:07.592Z,2312
2016-12-26T08:50:16.832Z,2324
2016-12-26T08:51:25.399Z,2672
2016-12-26T08:52:34.296Z,2844
2016-12-26T08:53:42.871Z,2828
2016-12-26T08:54:51.440Z,2804
2016-12-26T08:56:00.775Z,2964
2016-12-26T08:57:09.985Z,2968
2016-12-26T08:58:18.563Z,2972
2016-12-26T08:59:27.135Z,2840
2016-12-26T09:00:36.370Z,2788
2016-12-26T09:01:45.657Z,2876
2016-12-26T09:02:54.546Z,3072
2016-12-26T09:04:03.443Z,2992
2016-12-26T09:05:12.017Z,2992
2016-12-26T09:06:20.592Z,3008
2016-12-26T09:07:29.460Z,3040
2016-12-26T09:08:38.029Z,3088
2016-12-26T09:09:46.602Z,3136
2016-12-26T09:10:55.494Z,3144
2016-12-26T09:12:04.702Z,3164
2016-12-26T09:13:13.678Z,3192
2016-12-26T09:14:22.253Z,3240
2016-12-26T09:15:30.825Z,3320
2016-12-26T09:16:39.715Z,3380
2016-12-26T09:17:48.605Z,3388
2016-12-26T09:18:57.225Z,3376
2016-12-26T09:20:06.433Z,3328
2016-12-26T09:21:15.325Z,3340
2016-12-26T09:22:24.211Z,3340
2016-12-26T09:23:32.780Z,3372
2016-12-26T09:24:41.970Z,3388
2016-12-26T09:25:50.860Z,3388
2016-12-26T09:26:59.755Z,3416
2016-12-26T09:28:08.650Z,3428
2016-12-26T09:29:17.224Z,3444
2016-12-26T09:30:25.895Z,3476
2016-12-26T09:31:34.470Z,3516
2016-12-26T09:32:43.044Z,3544
2016-12-26T09:33:51.609Z,3596
2016-12-26T09:35:00.506Z,3700
2016-12-26T09:36:09.747Z,4116
2016-12-26T09:37:18.317Z,4700
2016-12-26T09:38:27.205Z,4328
2016-12-26T09:39:36.097Z,3840
2016-12-26T09:40:44.666Z,3740
2016-12-26T09:41:53.575Z,3816
2016-12-26T09:43:02.155Z,3596
2016-12-26T09:44:11.045Z,3620
2016-12-26T09:45:19.616Z,3676
2016-12-26T09:46:28.186Z,3776
2016-12-26T09:47:37.106Z,3860
2016-12-26T09:48:45.996Z,3804
2016-12-26T09:49:54.565Z,3732
2016-12-26T09:51:03.132Z,3776
2016-12-26T09:52:12.337Z,3864
2016-12-26T09:53:21.693Z,3972
2016-12-26T09:54:30.272Z,4432
2016-12-26T09:55:39.169Z,4424
2016-12-26T09:56:48.693Z,3936
2016-12-26T09:57:57.580Z,3952
2016-12-26T09:59:06.550Z,3992
2016-12-26T10:00:15.129Z,4100
2016-12-26T10:01:24.024Z,4592
2016-12-26T10:02:32.595Z,6448
2016-12-26T10:03:41.483Z,9220
2016-12-26T10:04:50.458Z,8768
2016-12-26T10:05:59.029Z,8216
2016-12-26T10:07:07.919Z,5708
2016-12-26T10:08:16.487Z,5716
2016-12-26T10:09:25.057Z,7592
2016-12-26T10:10:34.299Z,7796
2016-12-26T10:11:43.539Z,7604
2016-12-26T10:12:52.425Z,6988
2016-12-26T10:14:01.316Z,5268
2016-12-26T10:15:09.886Z,4892
2016-12-26T10:16:19.184Z,5204
2016-12-26T10:17:28.109Z,5012
2016-12-26T10:18:37.002Z,4804
2016-12-26T10:19:46.213Z,4952
2016-12-26T10:20:55.421Z,5456
2016-12-26T10:22:05.296Z,6152
2016-12-26T10:23:14.207Z,7088
2016-12-26T10:24:22.782Z,8140
2016-12-26T10:25:31.356Z,8472
2016-12-26T10:26:40.244Z,7900
2016-12-26T10:27:49.116Z,7876
2016-12-26T10:28:57.713Z,6700
2016-12-26T10:30:06.287Z,5344
2016-12-26T10:31:14.860Z,5348
2016-12-26T10:32:23.430Z,5044
2016-12-26T10:33:32.778Z,5440
2016-12-26T10:34:41.348Z,5244
2016-12-26T10:35:50.257Z,5356
2016-12-26T10:36:58.832Z,5168
2016-12-26T10:38:08.041Z,5372
2016-12-26T10:39:16.969Z,6668
2016-12-26T10:40:25.545Z,5688
2016-12-26T10:41:34.116Z,4876
2016-12-26T10:42:42.685Z,4540
2016-12-26T10:43:51.255Z,4720
2016-12-26T10:44:59.885Z,5580
2016-12-26T10:46:09.414Z,5048
2016-12-26T10:47:18.625Z,4568
2016-12-26T10:48:27.518Z,4408
2016-12-26T10:49:36.093Z,4892
2016-12-26T10:50:45.016Z,4964
2016-12-26T10:51:53.589Z,4920
2016-12-26T10:53:02.480Z,4916
2016-12-26T10:54:11.054Z,5176
2016-12-26T10:55:19.946Z,4716
2016-12-26T10:56:28.971Z,4856
2016-12-26T10:57:37.865Z,4760
2016-12-26T10:58:46.434Z,4576
2016-12-26T10:59:55.007Z,5044
2016-12-26T11:01:03.591Z,5368
2016-12-26T11:02:12.311Z,6892
2016-12-26T11:03:21.200Z,6720
2016-12-26T11:04:29.773Z,6408
2016-12-26T11:05:38.347Z,5592
2016-12-26T11:06:47.237Z,5372
2016-12-26T11:07:56.796Z,5368
2016-12-26T11:09:05.684Z,5824
2016-12-26T11:10:14.254Z,6360
2016-12-26T11:11:23.144Z,6628
2016-12-26T11:12:31.715Z,5316
2016-12-26T11:13:40.687Z,4920
2016-12-26T11:14:49.254Z,5944
2016-12-26T11:15:57.825Z,6748
2016-12-26T11:17:06.721Z,7196
2016-12-26T11:18:15.294Z,8432
2016-12-26T11:19:24.849Z,7840
2016-12-26T11:20:34.378Z,7416
2016-12-26T11:21:43.269Z,6468
2016-12-26T11:22:51.845Z,4756
2016-12-26T11:24:01.057Z,4124
2016-12-26T11:25:10.084Z,3352
2016-12-26T11:26:18.655Z,3200
2016-12-26T11:27:27.870Z,3368
2016-12-26T11:28:36.764Z,3532
2016-12-26T11:29:45.336Z,3484
2016-12-26T11:30:54.256Z,3476
2016-12-26T11:32:02.827Z,3504
2016-12-26T11:33:11.719Z,3664
2016-12-26T11:34:20.957Z,4248
2016-12-26T11:35:29.531Z,4908
2016-12-26T11:36:38.471Z,5668
2016-12-26T11:37:47.048Z,3820
2016-12-26T11:38:56.255Z,2448
2016-12-26T11:40:05.144Z,1348
2016-12-26T11:41:14.037Z,828
2016-12-26T11:42:23.277Z,1248
2016-12-26T11:43:32.487Z,1924
2016-12-26T11:44:41.059Z,3384
2016-12-26T11:45:49.629Z,4564
2016-12-26T11:46:58.201Z,5288
2016-12-26T11:48:07.219Z,5644
2016-12-26T11:49:15.797Z,5716
2016-12-26T11:50:24.718Z,4836
2016-12-26T11:51:33.613Z,4532
2016-12-26T11:52:42.525Z,4484
2016-12-26T11:53:51.445Z,4192
2016-12-26T11:55:00.333Z,3836
2016-12-26T11:56:08.905Z,3604
2016-12-26T11:57:17.482Z,3524
2016-12-26T11:58:26.694Z,3608
2016-12-26T11:59:35.616Z,3784
2016-12-26T12:00:44.500Z,4292
2016-12-26T12:01:53.388Z,4324
2016-12-26T12:03:01.956Z,4380
2016-12-26T12:04:10.526Z,4452
2016-12-26T12:05:19.499Z,4560
2016-12-26T12:06:28.384Z,4316
2016-12-26T12:07:37.276Z,3792
2016-12-26T12:08:46.489Z,3324
2016-12-26T12:09:55.059Z,3348
2016-12-26T12:11:04.096Z,3404
2016-12-26T12:12:12.664Z,3840
2016-12-26T12:13:21.555Z,4852
2016-12-26T12:14:30.442Z,6164
2016-12-26T12:15:39.013Z,6484
2016-12-26T12:16:48.254Z,6000
2016-12-26T12:17:56.847Z,4844
2016-12-26T12:19:05.416Z,4212
2016-12-26T12:20:14.305Z,4920
2016-12-26T12:21:22.877Z,3904
2016-12-26T12:22:32.215Z,3080
2016-12-26T12:23:41.423Z,2648
2016-12-26T12:24:50.315Z,2252
2016-12-26T12:25:58.887Z,2408
2016-12-26T12:27:07.773Z,2532
2016-12-26T12:28:16.392Z,2948
2016-12-26T12:29:25.284Z,2940
2016-12-26T12:30:33.851Z,3492
2016-12-26T12:31:42.429Z,3712
2016-12-26T12:32:51.331Z,3792
2016-12-26T12:34:00.061Z,4096
2016-12-26T12:35:08.954Z,4312
2016-12-26T12:36:18.327Z,4320
2016-12-26T12:37:27.303Z,4252
2016-12-26T12:38:35.881Z,4308
2016-12-26T12:39:44.866Z,4924
2016-12-26T12:40:53.758Z,4324
2016-12-26T12:42:02.647Z,4196
2016-12-26T12:43:11.539Z,3876
2016-12-26T12:44:20.420Z,3952
2016-12-26T12:45:29.978Z,4560
2016-12-26T12:46:38.547Z,5204
2016-12-26T12:47:47.437Z,5476
2016-12-26T12:48:56.327Z,5452
2016-12-26T12:50:05.216Z,4912
2016-12-26T12:51:15.093Z,4564
2016-12-26T12:52:23.666Z,4400
2016-12-26T12:53:32.555Z,4520
2016-12-26T12:54:41.119Z,4540
2016-12-26T12:55:49.685Z,4308
2016-12-26T12:56:58.920Z,3952
2016-12-26T12:58:07.811Z,3664
2016-12-26T12:59:16.379Z,3348
2016-12-26T13:00:25.287Z,2664
2016-12-26T13:01:33.854Z,2028
2016-12-26T13:02:43.191Z,1560
2016-12-26T13:03:52.401Z,1064
2016-12-26T13:05:00.967Z,2392
2016-12-26T13:06:09.533Z,3932
2016-12-26T13:07:18.103Z,3516
2016-12-26T13:08:27.771Z,3120
2016-12-26T13:09:36.338Z,2936
2016-12-26T13:10:44.907Z,3008
2016-12-26T13:11:53.794Z,3368
2016-12-26T13:13:02.685Z,4240
2016-12-26T13:14:11.307Z,4600
2016-12-26T13:15:19.875Z,4524
2016-12-26T13:16:29.091Z,4412
2016-12-26T13:17:37.979Z,4356
2016-12-26T13:18:46.868Z,4324
2016-12-26T13:19:55.592Z,4428
2016-12-26T13:21:04.796Z,4576
2016-12-26T13:22:13.371Z,3292
2016-12-26T13:23:22.261Z,1584
2016-12-26T13:24:31.471Z,904
2016-12-26T13:25:40.191Z,584
2016-12-26T13:26:48.763Z,528
2016-12-26T13:27:57.331Z,876
2016-12-26T13:29:05.932Z,1896
2016-12-26T13:30:14.529Z,3120
2016-12-26T13:31:23.870Z,3628
2016-12-26T13:32:32.437Z,3488
2016-12-26T13:33:41.010Z,3004
2016-12-26T13:34:49.901Z,2768
2016-12-26T13:35:58.500Z,2720
2016-12-26T13:37:07.416Z,2772
2016-12-26T13:38:15.984Z,3020
2016-12-26T13:39:24.559Z,3148
2016-12-26T13:40:33.446Z,3512
2016-12-26T13:41:42.015Z,3708
2016-12-26T13:42:50.637Z,3432
2016-12-26T13:43:59.520Z,3204
2016-12-26T13:45:08.089Z,3536
2016-12-26T13:46:16.653Z,3876
2016-12-26T13:47:25.223Z,3756
2016-12-26T13:48:33.941Z,3472
2016-12-26T13:49:42.827Z,3072
2016-12-26T13:50:52.027Z,2796
2016-12-26T13:52:00.912Z,2796
2016-12-26T13:53:09.481Z,3184
2016-12-26T13:54:19.174Z,3252
2016-12-26T13:55:27.742Z,3232
2016-12-26T13:56:36.626Z,3204
2016-12-26T13:57:45.521Z,3164
2016-12-26T13:58:54.091Z,3148
2016-12-26T14:00:03.763Z,3108
2016-12-26T14:01:12.653Z,3088
2016-12-26T14:02:21.539Z,3060
2016-12-26T14:03:30.424Z,3028
2016-12-26T14:04:38.993Z,2992
2016-12-26T14:05:48.246Z,2968
2016-12-26T14:06:57.132Z,2912
2016-12-26T14:08:05.698Z,2876
2016-12-26T14:09:14.896Z,2832
2016-12-26T14:10:23.459Z,2804
2016-12-26T14:11:32.377Z,2792
2016-12-26T14:12:41.583Z,2892
2016-12-26T14:13:50.150Z,3144
2016-12-26T14:14:59.035Z,2840
2016-12-26T14:16:07.600Z,2712
2016-12-26T14:17:16.830Z,2588
2016-12-26T14:18:25.717Z,2532
2016-12-26T14:19:34.288Z,2472
2016-12-26T14:20:42.852Z,2420
2016-12-26T14:21:51.736Z,2340
2016-12-26T14:23:00.653Z,2252
2016-12-26T14:24:09.538Z,2208
2016-12-26T14:25:18.424Z,2124
2016-12-26T14:26:27.309Z,2076
2016-12-26T14:27:35.878Z,2048
2016-12-26T14:28:45.115Z,2092
2016-12-26T14:29:54.321Z,1972
2016-12-26T14:31:03.526Z,1900
2016-12-26T14:32:12.091Z,1816
2016-12-26T14:33:20.975Z,1748
2016-12-26T14:34:30.629Z,1656
2016-12-26T14:35:39.200Z,1596
2016-12-26T14:36:47.766Z,1564
2016-12-26T14:37:56.973Z,1552
2016-12-26T14:39:05.540Z,1580
2016-12-26T14:40:14.783Z,1572
2016-12-26T14:41:24.313Z,1536
2016-12-26T14:42:33.200Z,1504
2016-12-26T14:43:42.402Z,1460
2016-12-26T14:44:51.285Z,1404
2016-12-26T14:46:00.200Z,1356
2016-12-26T14:47:09.083Z,1316
2016-12-26T14:48:17.648Z,1256
2016-12-26T14:49:26.852Z,1204
2016-12-26T14:50:35.417Z,1164
2016-12-26T14:51:44.787Z,1120
2016-12-26T14:52:53.355Z,1080
2016-12-26T14:54:02.240Z,1036
2016-12-26T14:55:11.123Z,992
2016-12-26T14:56:19.691Z,944
2016-12-26T14:57:29.028Z,904
2016-12-26T14:58:37.592Z,864
2016-12-26T14:59:46.158Z,820
2016-12-26T15:00:54.728Z,776
2016-12-26T15:02:03.640Z,732
2016-12-26T15:03:12.676Z,692
2016-12-26T15:04:21.566Z,648
2016-12-26T15:05:30.767Z,608
2016-12-26T15:06:39.335Z,572
2016-12-26T15:07:47.906Z,532
2016-12-26T15:08:57.149Z,492
2016-12-26T15:10:05.714Z,456
2016-12-26T15:11:14.279Z,420
2016-12-26T15:12:22.844Z,388
2016-12-26T15:13:32.058Z,356
2016-12-26T15:14:41.296Z,324
2016-12-26T15:15:49.860Z,292
2016-12-26T15:16:58.426Z,264
2016-12-26T15:18:07.949Z,240
2016-12-26T15:19:16.518Z,216
2016-12-26T15:20:25.433Z,192
2016-12-26T15:21:34.635Z,172
2016-12-26T15:22:43.206Z,148
2016-12-26T15:23:52.408Z,132
2016-12-26T15:25:01.296Z,116
2016-12-26T15:26:10.851Z,100
2016-12-26T15:27:19.735Z,88
2016-12-26T15:28:28.623Z,76
2016-12-26T15:29:37.192Z,68
2016-12-26T15:30:45.782Z,56
2016-12-26T15:31:55.136Z,52
2016-12-26T15:33:03.728Z,44
2016-12-26T15:34:12.612Z,36
2016-12-26T15:35:21.497Z,32
2016-12-26T15:36:30.095Z,28
2016-12-26T15:37:39.428Z,24
2016-12-26T15:38:48.312Z,20
2016-12-26T15:39:56.876Z,16
2016-12-26T15:41:05.470Z,16
2016-12-26T15:42:14.354Z,12
2016-12-26T15:43:24.276Z,12
2016-12-26T15:44:33.161Z,8
2016-12-26T15:45:42.045Z,8
2016-12-26T15:46:50.930Z,4
2016-12-26T15:47:59.821Z,4
2016-12-26T15:49:09.059Z,4
2016-12-26T15:50:17.629Z,0
2016-12-26T15:51:26.201Z,0
2016-12-26T15:52:34.810Z,4
2016-12-26T15:53:43.380Z,4
2016-12-26T15:54:52.933Z,0
2016-12-26T15:56:01.826Z,0
2016-12-26T15:57:10.715Z,0
2016-12-26T15:58:19.924Z,0
2016-12-26T15:59:28.817Z,0
2016-12-26T16:00:37.830Z,0
2016-12-26T16:01:46.404Z,0
2016-12-26T16:02:55.292Z,0
2016-12-26T16:04:03.858Z,0
2016-12-26T16:05:12.741Z,0
2016-12-26T16:06:21.458Z,0
2016-12-26T16:07:30.347Z,0
2016-12-26T16:08:38.913Z,0